Terminal Aerodrome Forecast
Issued by NWS

Home | Current Version | Previous Version | Text Only | Print | Product List | Glossary On
Versions: 1 2 3 4 5 6 7 8 9 10 11 12 13 14 15 16 17 18 19 20
000
FTUS41 KPBZ 220500
TAFAGC
TAF
KAGC 220522Z 2206/2306 33008KT P6SM OVC006
      TEMPO 2206/2208 3SM -SHRA BR OVC004
     FM221300 34008KT P6SM OVC010
     FM221800 33010KT P6SM BKN020=

USA.gov is the U.S. government's official web portal to all federal, state and local government web resources and services.